createdAt,value
2017-11-15T00:01:48.856Z,25.20
2017-11-15T00:04:33.655Z,22.48
2017-11-15T00:07:00.792Z,26.67
2017-11-15T00:09:27.170Z,22.77
2017-11-15T00:11:53.559Z,24.27
2017-11-15T00:14:21.405Z,23.10
2017-11-15T00:16:48.041Z,23.60
2017-11-15T00:19:14.442Z,25.27
2017-11-15T00:21:40.843Z,24.63
2017-11-15T00:24:07.981Z,24.15
2017-11-15T00:26:35.127Z,23.10
2017-11-15T00:29:01.499Z,22.10
2017-11-15T00:31:27.907Z,22.42
2017-11-15T00:33:54.353Z,23.37
2017-11-15T00:36:20.744Z,21.00
2017-11-15T00:38:47.196Z,20.23
2017-11-15T00:41:14.411Z,22.02
2017-11-15T00:43:40.817Z,21.67
2017-11-15T00:46:07.330Z,22.95
2017-11-15T00:48:33.753Z,21.10
2017-11-15T00:51:01.147Z,20.85
2017-11-15T00:53:27.556Z,20.02
2017-11-15T00:55:53.968Z,20.60
2017-11-15T00:58:21.118Z,22.25
2017-11-15T01:00:48.258Z,21.45
2017-11-15T01:03:14.658Z,20.55
2017-11-15T01:05:41.041Z,20.95
2017-11-15T01:08:07.420Z,19.55
2017-11-15T01:10:33.844Z,21.55
2017-11-15T01:13:00.231Z,22.02
2017-11-15T01:15:26.644Z,20.77
2017-11-15T01:17:53.015Z,19.33
2017-11-15T01:20:19.421Z,21.52
2017-11-15T01:22:46.545Z,20.05
2017-11-15T01:25:12.957Z,18.98
2017-11-15T01:27:39.360Z,20.17
2017-11-15T01:30:05.756Z,19.15
2017-11-15T01:32:32.159Z,21.15
2017-11-15T01:34:58.561Z,21.02
2017-11-15T01:37:24.972Z,20.92
2017-11-15T01:39:52.112Z,19.48
2017-11-15T01:42:19.245Z,20.73
2017-11-15T01:44:45.717Z,20.52
2017-11-15T01:47:12.215Z,22.20
2017-11-15T01:49:39.405Z,21.45
2017-11-15T01:52:05.864Z,24.48
2017-11-15T01:54:32.308Z,21.12
2017-11-15T01:56:58.752Z,22.58
2017-11-15T01:59:25.177Z,21.45
2017-11-15T02:01:51.572Z,18.58
2017-11-15T02:04:17.994Z,19.90
2017-11-15T02:06:44.397Z,19.67
2017-11-15T02:09:10.839Z,21.08
2017-11-15T02:11:37.990Z,21.70
2017-11-15T02:14:05.170Z,19.87
2017-11-15T02:16:31.561Z,19.90
2017-11-15T02:18:57.981Z,18.20
2017-11-15T02:21:24.455Z,16.90
2017-11-15T02:23:50.891Z,20.17
2017-11-15T02:26:17.343Z,18.17
2017-11-15T02:28:43.813Z,18.67
2017-11-15T02:31:10.233Z,15.80
2017-11-15T02:33:36.741Z,17.00
2017-11-15T02:36:03.227Z,18.77
2017-11-15T02:38:29.660Z,19.35
2017-11-15T02:40:56.090Z,19.60
2017-11-15T02:43:23.289Z,18.25
2017-11-15T02:45:49.718Z,18.67
2017-11-15T02:48:16.137Z,18.47
2017-11-15T02:50:43.436Z,15.70
2017-11-15T02:53:09.997Z,15.98
2017-11-15T02:55:37.181Z,18.92
2017-11-15T02:58:03.568Z,17.35
2017-11-15T03:00:30.001Z,15.95
2017-11-15T03:02:57.160Z,14.02
2017-11-15T03:05:23.565Z,14.40
2017-11-15T03:07:50.028Z,15.93
2017-11-15T03:10:16.453Z,14.77
2017-11-15T03:12:42.900Z,14.10
2017-11-15T03:15:10.113Z,16.12
2017-11-15T03:17:36.534Z,15.70
2017-11-15T03:20:02.956Z,17.85
2017-11-15T03:22:30.075Z,17.37
2017-11-15T03:24:57.216Z,15.32
2017-11-15T03:27:24.352Z,15.65
2017-11-15T03:29:50.776Z,16.75
2017-11-15T03:32:17.184Z,14.98
2017-11-15T03:34:43.596Z,15.50
2017-11-15T03:37:09.981Z,15.80
2017-11-15T03:39:36.389Z,16.10
2017-11-15T03:42:02.783Z,15.05
2017-11-15T03:44:29.196Z,15.65
2017-11-15T03:46:56.329Z,16.40
2017-11-15T03:49:22.767Z,16.27
2017-11-15T03:51:49.901Z,13.73
2017-11-15T03:54:16.494Z,15.23
2017-11-15T03:56:42.948Z,14.30
2017-11-15T03:59:09.357Z,16.65
2017-11-15T04:01:35.794Z,15.55
2017-11-15T04:04:02.194Z,16.00
2017-11-15T04:06:29.365Z,15.88
2017-11-15T04:08:55.764Z,16.60
2017-11-15T04:11:22.151Z,14.52
2017-11-15T04:13:48.539Z,15.95
2017-11-15T04:16:15.683Z,16.30
2017-11-15T04:18:42.839Z,16.60
2017-11-15T04:21:09.995Z,15.85
2017-11-15T04:23:37.174Z,17.20
2017-11-15T04:26:03.565Z,17.65
2017-11-15T04:28:30.717Z,18.35
2017-11-15T04:30:57.868Z,17.77
2017-11-15T04:33:25.046Z,16.60
2017-11-15T04:35:51.454Z,17.55
2017-11-15T04:38:17.851Z,19.80
2017-11-15T04:40:44.240Z,20.45
2017-11-15T04:43:10.814Z,17.45
2017-11-15T04:45:37.263Z,16.50
2017-11-15T04:48:03.747Z,17.25
2017-11-15T04:50:30.179Z,16.40
2017-11-15T04:52:56.589Z,15.38
2017-11-15T04:55:23.728Z,16.30
2017-11-15T04:57:51.017Z,14.80
2017-11-15T05:00:17.439Z,13.10
2017-11-15T05:02:43.852Z,13.38
2017-11-15T05:05:10.252Z,12.23
2017-11-15T05:07:36.930Z,12.83
2017-11-15T05:10:04.201Z,13.53
2017-11-15T05:12:30.629Z,14.07
2017-11-15T05:14:57.059Z,13.20
2017-11-15T05:17:23.499Z,12.48
2017-11-15T05:19:49.925Z,14.15
2017-11-15T05:22:16.368Z,13.90
2017-11-15T05:24:42.802Z,14.60
2017-11-15T05:27:09.254Z,17.97
2017-11-15T05:29:35.674Z,18.08
2017-11-15T05:32:02.090Z,16.40
2017-11-15T05:34:28.508Z,16.13
2017-11-15T05:36:54.925Z,16.60
2017-11-15T05:39:22.068Z,14.13
2017-11-15T05:41:49.213Z,14.20
2017-11-15T05:44:15.611Z,13.50
2017-11-15T05:46:42.016Z,12.25
2017-11-15T05:49:08.444Z,12.90
2017-11-15T05:51:34.987Z,13.40
2017-11-15T05:54:01.403Z,13.57
2017-11-15T05:56:28.535Z,13.10
2017-11-15T05:58:54.927Z,13.27
2017-11-15T06:01:21.379Z,13.75
2017-11-15T06:03:47.783Z,15.35
2017-11-15T06:06:14.142Z,15.20
2017-11-15T06:08:40.520Z,13.57
2017-11-15T06:11:07.092Z,14.20
2017-11-15T06:13:33.511Z,14.00
2017-11-15T06:15:59.991Z,13.77
2017-11-15T06:18:26.362Z,14.38
2017-11-15T06:20:53.504Z,14.93
2017-11-15T06:23:20.704Z,13.60
2017-11-15T06:25:47.135Z,14.38
2017-11-15T06:28:14.358Z,14.23
2017-11-15T06:30:40.705Z,12.88
2017-11-15T06:33:07.144Z,15.68
2017-11-15T06:35:33.483Z,14.52
2017-11-15T06:37:59.852Z,14.20
2017-11-15T06:40:26.992Z,15.45
2017-11-15T06:42:53.382Z,14.45
2017-11-15T06:45:19.801Z,14.35
2017-11-15T06:47:46.254Z,16.33
2017-11-15T06:50:12.652Z,15.55
2017-11-15T06:52:39.045Z,15.43
2017-11-15T06:55:05.482Z,15.65
2017-11-15T06:57:32.641Z,12.10
2017-11-15T06:59:59.786Z,12.83
2017-11-15T07:02:26.920Z,16.90
2017-11-15T07:04:53.364Z,14.40
2017-11-15T07:07:20.543Z,12.43
2017-11-15T07:09:46.939Z,29.10
2017-11-15T07:12:20.160Z,18.03
2017-11-15T07:14:46.563Z,10.53
2017-11-15T07:17:13.027Z,9.83
2017-11-15T07:19:39.435Z,8.67
2017-11-15T07:22:05.813Z,10.50
2017-11-15T07:24:32.235Z,12.10
2017-11-15T07:26:58.638Z,14.27
2017-11-15T07:29:25.824Z,13.83
2017-11-15T07:31:52.220Z,12.43
2017-11-15T07:34:18.593Z,12.80
2017-11-15T07:36:44.981Z,12.07
2017-11-15T07:39:11.373Z,10.60
2017-11-15T07:41:37.785Z,12.37
2017-11-15T07:44:04.203Z,12.50
2017-11-15T07:46:30.612Z,10.10
2017-11-15T07:48:57.809Z,11.10
2017-11-15T07:51:24.201Z,10.90
2017-11-15T07:53:51.336Z,14.17
2017-11-15T07:56:17.729Z,9.90
2017-11-15T07:58:44.153Z,10.30
2017-11-15T08:01:10.551Z,8.97
2017-11-15T08:03:37.675Z,11.70
2017-11-15T08:06:04.068Z,12.43
2017-11-15T08:08:30.461Z,11.37
2017-11-15T08:10:57.601Z,11.67
2017-11-15T08:13:24.725Z,10.30
2017-11-15T08:15:51.108Z,14.07
2017-11-15T08:18:17.506Z,16.53
2017-11-15T08:20:44.662Z,11.57
2017-11-15T08:23:11.141Z,10.00
2017-11-15T08:25:37.568Z,11.30
2017-11-15T08:28:03.988Z,10.97
2017-11-15T08:30:30.393Z,8.80
2017-11-15T08:32:57.540Z,7.83
2017-11-15T08:35:23.931Z,8.40
2017-11-15T08:37:51.102Z,7.67
2017-11-15T08:40:17.523Z,7.93
2017-11-15T08:42:43.966Z,9.30
2017-11-15T08:45:10.447Z,10.07
2017-11-15T08:47:36.942Z,9.00
2017-11-15T08:50:03.378Z,9.23
2017-11-15T08:52:29.818Z,8.60
2017-11-15T08:54:56.995Z,8.47
2017-11-15T08:57:23.571Z,9.63
2017-11-15T08:59:49.996Z,8.13
2017-11-15T09:02:16.418Z,9.47
2017-11-15T09:04:42.837Z,8.57
2017-11-15T09:07:09.319Z,8.80
2017-11-15T09:09:36.520Z,9.07
2017-11-15T09:12:02.947Z,9.70
2017-11-15T09:14:29.355Z,9.83
2017-11-15T09:16:56.791Z,8.97
2017-11-15T09:19:23.941Z,9.03
2017-11-15T09:21:50.324Z,9.43
2017-11-15T09:24:16.813Z,9.03
2017-11-15T09:26:43.309Z,9.33
2017-11-15T09:29:09.827Z,10.83
2017-11-15T09:31:36.483Z,11.33
2017-11-15T09:34:02.976Z,12.80
2017-11-15T09:36:30.203Z,17.17
2017-11-15T09:38:57.363Z,15.60
2017-11-15T09:41:25.232Z,53.63
2017-11-15T09:43:53.112Z,15.70
2017-11-15T09:46:20.252Z,13.23
2017-11-15T09:48:47.381Z,39.17
2017-11-15T09:51:13.836Z,15.20
2017-11-15T09:53:40.957Z,15.97
2017-11-15T09:56:07.341Z,13.90
2017-11-15T09:58:33.757Z,13.43
2017-11-15T10:01:00.897Z,18.43
2017-11-15T10:03:28.048Z,14.40
2017-11-15T10:05:55.206Z,12.73
2017-11-15T10:08:22.395Z,14.43
2017-11-15T10:10:48.854Z,13.90
2017-11-15T10:13:16.052Z,12.73
2017-11-15T10:15:43.225Z,12.87
2017-11-15T10:18:09.622Z,13.30
2017-11-15T10:20:36.752Z,15.60
2017-11-15T10:23:03.162Z,16.73
2017-11-15T10:25:29.572Z,15.00
2017-11-15T10:27:55.955Z,12.17
2017-11-15T10:30:23.828Z,11.90
2017-11-15T10:32:51.044Z,12.60
2017-11-15T10:35:17.440Z,11.00
2017-11-15T10:37:43.863Z,10.17
2017-11-15T10:40:10.364Z,11.27
2017-11-15T10:42:36.705Z,10.90
2017-11-15T10:45:04.564Z,13.00
2017-11-15T10:47:32.460Z,11.77
2017-11-15T10:50:00.033Z,13.03
2017-11-15T10:52:26.421Z,12.23
2017-11-15T10:54:52.834Z,12.13
2017-11-15T10:57:19.231Z,11.57
2017-11-15T10:59:45.691Z,12.60
2017-11-15T11:02:12.096Z,11.80
2017-11-15T11:04:38.500Z,15.10
2017-11-15T11:07:06.372Z,12.10
2017-11-15T11:09:33.548Z,10.90
2017-11-15T11:11:59.993Z,15.17
2017-11-15T11:14:26.410Z,13.23
2017-11-15T11:16:52.848Z,12.27
2017-11-15T11:19:19.271Z,13.50
2017-11-15T11:21:45.737Z,12.60
2017-11-15T11:24:12.196Z,16.40
2017-11-15T11:26:38.621Z,11.30
2017-11-15T11:29:05.050Z,15.53
2017-11-15T11:31:31.438Z,13.00
2017-11-15T11:33:57.873Z,13.27
2017-11-15T11:36:24.302Z,14.00
2017-11-15T11:38:50.712Z,11.87
2017-11-15T11:41:17.848Z,13.13
2017-11-15T11:43:45.000Z,13.70
2017-11-15T11:46:12.868Z,12.30
2017-11-15T11:48:40.770Z,6.50
2017-11-15T11:51:07.161Z,4.30
2017-11-15T11:53:33.561Z,5.40
2017-11-15T11:55:59.965Z,5.17
2017-11-15T11:58:26.366Z,6.23
2017-11-15T12:00:53.628Z,7.30
2017-11-15T12:03:20.806Z,7.53
2017-11-15T12:05:47.195Z,9.50
2017-11-15T12:08:13.656Z,9.43
2017-11-15T12:10:40.873Z,10.40
2017-11-15T12:13:09.312Z,9.47
2017-11-15T12:15:35.704Z,9.13
2017-11-15T12:18:02.126Z,9.17
2017-11-15T12:20:28.512Z,9.77
2017-11-15T12:22:54.975Z,8.97
2017-11-15T12:25:21.405Z,9.70
2017-11-15T12:27:47.841Z,10.20
2017-11-15T12:30:15.042Z,15.00
2017-11-15T12:32:42.188Z,10.83
2017-11-15T12:35:08.618Z,10.50
2017-11-15T12:37:35.790Z,11.17
2017-11-15T12:40:02.263Z,10.00
2017-11-15T12:42:28.699Z,9.70
2017-11-15T12:44:55.137Z,9.60
2017-11-15T12:47:23.083Z,9.10
2017-11-15T12:49:49.520Z,10.23
2017-11-15T12:52:15.941Z,9.07
2017-11-15T12:54:42.328Z,8.47
2017-11-15T12:57:09.517Z,9.20
2017-11-15T12:59:35.924Z,9.63
2017-11-15T13:02:02.364Z,10.27
2017-11-15T13:04:28.804Z,10.40
2017-11-15T13:06:55.256Z,9.60
2017-11-15T13:09:21.682Z,10.00
2017-11-15T13:11:48.103Z,8.43
2017-11-15T13:14:14.532Z,10.60
2017-11-15T13:16:40.988Z,9.93
2017-11-15T13:19:07.588Z,9.60
2017-11-15T13:21:34.052Z,9.50
2017-11-15T13:24:00.463Z,9.23
2017-11-15T13:26:26.924Z,8.80
2017-11-15T13:28:53.336Z,9.87
2017-11-15T13:31:19.785Z,9.97
2017-11-15T13:33:46.207Z,9.83
2017-11-15T13:36:12.663Z,8.93
2017-11-15T13:38:39.088Z,8.83
2017-11-15T13:41:05.517Z,8.27
2017-11-15T13:43:31.922Z,9.03
2017-11-15T13:45:58.360Z,8.90
2017-11-15T13:48:24.762Z,8.50
2017-11-15T13:50:51.234Z,8.27
2017-11-15T13:53:17.619Z,9.17
2017-11-15T13:55:43.988Z,8.13
2017-11-15T13:58:10.385Z,7.60
2017-11-15T14:00:36.781Z,8.60
2017-11-15T14:03:03.175Z,8.33
2017-11-15T14:05:30.300Z,8.03
2017-11-15T14:07:56.685Z,9.40
2017-11-15T14:10:23.068Z,9.10
2017-11-15T14:12:50.216Z,11.47
2017-11-15T14:15:16.646Z,8.80
2017-11-15T14:17:43.822Z,9.07
2017-11-15T14:20:10.269Z,9.57
2017-11-15T14:22:36.687Z,13.90
2017-11-15T14:25:03.153Z,10.40
2017-11-15T14:27:29.612Z,10.70
2017-11-15T14:29:56.048Z,9.13
2017-11-15T14:32:23.965Z,8.47
2017-11-15T14:34:50.384Z,9.43
2017-11-15T14:37:16.847Z,9.13
2017-11-15T14:39:43.337Z,9.47
2017-11-15T14:42:10.514Z,9.20
2017-11-15T14:44:36.916Z,10.20
2017-11-15T14:47:03.386Z,10.73
2017-11-15T14:49:29.877Z,10.00
2017-11-15T14:51:57.163Z,12.10
2017-11-15T14:54:23.598Z,10.53
2017-11-15T14:56:50.053Z,10.47
2017-11-15T14:59:16.457Z,10.73
2017-11-15T15:01:43.629Z,11.43
2017-11-15T15:04:10.073Z,10.70
2017-11-15T15:06:36.555Z,9.93
2017-11-15T15:09:03.756Z,11.47
2017-11-15T15:11:30.181Z,15.57
2017-11-15T15:13:56.607Z,15.00
2017-11-15T15:16:23.066Z,14.60
2017-11-15T15:18:49.463Z,14.93
2017-11-15T15:21:15.935Z,10.30
2017-11-15T15:23:42.400Z,13.00
2017-11-15T15:26:09.586Z,15.07
2017-11-15T15:28:36.055Z,11.80
2017-11-15T15:31:02.542Z,11.03
2017-11-15T15:33:29.007Z,12.23
2017-11-15T15:35:55.508Z,11.90
2017-11-15T15:38:22.002Z,13.50
2017-11-15T15:40:49.205Z,16.20
2017-11-15T15:43:15.609Z,12.90
2017-11-15T15:45:42.748Z,13.40
2017-11-15T15:48:09.169Z,16.00
2017-11-15T15:50:35.599Z,20.77
2017-11-15T15:53:02.049Z,20.83
2017-11-15T15:55:29.237Z,17.23
2017-11-15T15:57:55.702Z,11.97
2017-11-15T16:00:22.133Z,12.50
2017-11-15T16:02:48.536Z,19.80
2017-11-15T16:05:14.941Z,19.07
2017-11-15T16:07:41.332Z,14.40
2017-11-15T16:10:07.743Z,38.20
2017-11-15T16:12:34.159Z,104.97
2017-11-15T16:15:00.546Z,24.43
2017-11-15T16:17:26.940Z,13.90
2017-11-15T16:19:53.340Z,12.63
2017-11-15T16:22:20.513Z,11.80
2017-11-15T16:24:46.946Z,11.37
2017-11-15T16:27:13.347Z,13.00
2017-11-15T16:29:40.477Z,13.33
2017-11-15T16:32:06.890Z,12.70
2017-11-15T16:34:33.271Z,18.60
2017-11-15T16:37:00.400Z,16.67
2017-11-15T16:39:27.525Z,13.80
2017-11-15T16:41:53.949Z,16.93
2017-11-15T16:44:20.350Z,18.90
2017-11-15T16:46:46.787Z,21.30
2017-11-15T16:49:13.234Z,18.53
2017-11-15T16:51:39.640Z,24.83
2017-11-15T16:54:07.593Z,21.93
2017-11-15T16:56:34.721Z,21.40
2017-11-15T16:59:01.129Z,19.93
2017-11-15T17:01:27.527Z,23.40
2017-11-15T17:03:53.903Z,26.30
2017-11-15T17:06:20.300Z,22.80
2017-11-15T17:08:46.674Z,23.80
2017-11-15T17:11:13.081Z,23.90
2017-11-15T17:13:39.469Z,26.63
2017-11-15T17:16:05.855Z,29.40
2017-11-15T17:18:32.249Z,31.47
2017-11-15T17:20:58.649Z,32.97
2017-11-15T17:23:25.067Z,38.07
2017-11-15T17:25:51.449Z,30.17
2017-11-15T17:28:17.857Z,27.50
2017-11-15T17:30:44.663Z,25.33
2017-11-15T17:33:11.065Z,21.80
2017-11-15T17:35:37.462Z,19.23
2017-11-15T17:38:04.592Z,19.03
2017-11-15T17:40:31.022Z,18.83
2017-11-15T17:42:57.430Z,21.37
2017-11-15T17:45:23.864Z,29.57
2017-11-15T17:47:50.340Z,24.07
2017-11-15T17:50:17.512Z,25.80
2017-11-15T17:52:43.891Z,27.23
2017-11-15T17:55:10.334Z,25.00
2017-11-15T17:57:37.488Z,23.40
2017-11-15T18:00:04.653Z,22.40
2017-11-15T18:02:31.808Z,22.40
2017-11-15T18:04:58.935Z,24.70
2017-11-15T18:07:25.337Z,27.80
2017-11-15T18:09:52.457Z,28.30
2017-11-15T18:12:18.875Z,24.77
2017-11-15T18:14:45.983Z,22.27
2017-11-15T18:17:12.373Z,21.67
2017-11-15T18:19:38.768Z,21.63
2017-11-15T18:22:06.408Z,19.67
2017-11-15T18:24:32.820Z,18.70
2017-11-15T18:26:59.248Z,21.10
2017-11-15T18:29:25.689Z,19.40
2017-11-15T18:31:52.075Z,22.53
2017-11-15T18:34:19.246Z,25.30
2017-11-15T18:36:45.710Z,30.90
2017-11-15T18:39:13.631Z,29.87
2017-11-15T18:41:40.064Z,29.80
2017-11-15T18:44:07.228Z,29.00
2017-11-15T18:46:34.173Z,27.67
2017-11-15T18:49:00.576Z,25.40
2017-11-15T18:51:27.732Z,25.10
2017-11-15T18:53:54.877Z,26.03
2017-11-15T18:56:22.036Z,25.87
2017-11-15T18:58:49.172Z,22.40
2017-11-15T19:01:16.343Z,25.63
2017-11-15T19:03:42.830Z,29.37
2017-11-15T19:06:09.239Z,31.57
2017-11-15T19:08:35.618Z,29.07
2017-11-15T19:11:02.749Z,26.13
2017-11-15T19:13:29.147Z,24.90
2017-11-15T19:15:55.543Z,21.20
2017-11-15T19:18:22.716Z,20.23
2017-11-15T19:20:50.096Z,23.37
2017-11-15T19:23:16.507Z,23.00
2017-11-15T19:25:42.891Z,22.07
2017-11-15T19:28:10.054Z,23.85
2017-11-15T19:30:37.204Z,22.62
2017-11-15T19:33:04.307Z,24.50
2017-11-15T19:35:30.724Z,24.40
2017-11-15T19:37:57.857Z,22.07
2017-11-15T19:40:24.264Z,23.77
2017-11-15T19:42:51.512Z,22.97
2017-11-15T19:45:17.895Z,23.93
2017-11-15T19:47:44.288Z,26.13
2017-11-15T19:50:11.428Z,28.63
2017-11-15T19:52:37.815Z,31.60
2017-11-15T19:55:04.234Z,31.47
2017-11-15T19:57:30.698Z,30.60
2017-11-15T19:59:57.129Z,32.77
2017-11-15T20:02:23.547Z,35.97
2017-11-15T20:04:49.964Z,30.10
2017-11-15T20:07:16.349Z,30.80
2017-11-15T20:09:42.727Z,31.60
2017-11-15T20:12:09.128Z,29.43
2017-11-15T20:14:36.326Z,29.93
2017-11-15T20:17:02.710Z,33.10
2017-11-15T20:19:29.874Z,34.43
2017-11-15T20:21:57.003Z,34.63
2017-11-15T20:24:23.429Z,36.43
2017-11-15T20:26:49.817Z,36.70
2017-11-15T20:29:16.211Z,31.43
2017-11-15T20:31:43.364Z,32.07
2017-11-15T20:34:09.796Z,32.83
2017-11-15T20:36:36.932Z,34.37
2017-11-15T20:39:03.363Z,40.60
2017-11-15T20:41:30.514Z,39.47
2017-11-15T20:43:56.915Z,38.33
2017-11-15T20:46:23.285Z,38.30
2017-11-15T20:48:50.409Z,41.23
2017-11-15T20:51:16.792Z,45.63
2017-11-15T20:53:43.192Z,40.17
2017-11-15T20:56:09.573Z,42.00
2017-11-15T20:58:36.039Z,44.77
2017-11-15T21:01:02.453Z,40.63
2017-11-15T21:03:28.897Z,38.53
2017-11-15T21:05:55.335Z,37.70
2017-11-15T21:08:21.742Z,42.03
2017-11-15T21:10:48.152Z,45.70
2017-11-15T21:13:14.580Z,40.80
2017-11-15T21:15:40.980Z,38.93
2017-11-15T21:18:07.449Z,41.43
2017-11-15T21:20:33.857Z,44.00
2017-11-15T21:23:01.025Z,38.40
2017-11-15T21:25:27.419Z,38.20
2017-11-15T21:27:53.829Z,45.50
2017-11-15T21:30:20.255Z,38.93
2017-11-15T21:32:46.661Z,43.27
2017-11-15T21:35:13.057Z,38.70
2017-11-15T21:37:40.966Z,47.07
2017-11-15T21:40:07.369Z,43.70
2017-11-15T21:42:34.514Z,41.87
2017-11-15T21:45:00.901Z,43.47
2017-11-15T21:47:28.094Z,37.10
2017-11-15T21:49:55.277Z,39.60
2017-11-15T21:52:21.661Z,40.40
2017-11-15T21:54:48.070Z,35.67
2017-11-15T21:57:14.486Z,40.10
2017-11-15T21:59:40.866Z,42.33
2017-11-15T22:02:07.290Z,38.83
2017-11-15T22:04:33.699Z,40.63
2017-11-15T22:07:00.108Z,38.40
2017-11-15T22:09:26.500Z,40.77
2017-11-15T22:11:52.912Z,43.83
2017-11-15T22:14:19.349Z,42.20
2017-11-15T22:16:45.745Z,37.73
2017-11-15T22:19:12.241Z,37.60
2017-11-15T22:21:39.440Z,40.10
2017-11-15T22:24:05.857Z,45.47
2017-11-15T22:26:32.252Z,41.00
2017-11-15T22:28:59.400Z,40.73
2017-11-15T22:31:26.522Z,39.77
2017-11-15T22:33:52.950Z,35.27
2017-11-15T22:36:19.339Z,39.97
2017-11-15T22:38:45.748Z,41.53
2017-11-15T22:41:12.917Z,36.53
2017-11-15T22:43:40.068Z,40.47
2017-11-15T22:46:06.451Z,40.63
2017-11-15T22:48:32.833Z,44.80
2017-11-15T22:50:59.282Z,41.20
2017-11-15T22:53:25.667Z,39.07
2017-11-15T22:55:52.061Z,38.53
2017-11-15T22:58:18.461Z,39.87
2017-11-15T23:00:44.873Z,41.10
2017-11-15T23:03:11.988Z,40.77
2017-11-15T23:05:39.162Z,41.97
2017-11-15T23:08:05.556Z,38.97
2017-11-15T23:10:31.961Z,42.10
2017-11-15T23:13:01.636Z,39.00
2017-11-15T23:15:28.076Z,37.77
2017-11-15T23:17:55.206Z,39.57
2017-11-15T23:20:21.584Z,44.23
2017-11-15T23:22:47.990Z,39.40
2017-11-15T23:25:15.165Z,40.27
2017-11-15T23:27:41.574Z,36.87
2017-11-15T23:30:08.747Z,41.17
2017-11-15T23:32:35.213Z,39.70
2017-11-15T23:35:01.619Z,36.77
2017-11-15T23:37:28.012Z,39.77
2017-11-15T23:39:55.156Z,36.53
2017-11-15T23:42:22.337Z,41.17
2017-11-15T23:44:48.756Z,39.87
2017-11-15T23:47:15.907Z,39.83
2017-11-15T23:49:43.026Z,41.47
2017-11-15T23:52:09.412Z,41.17
2017-11-15T23:54:35.792Z,40.20
2017-11-15T23:57:02.228Z,40.37
2017-11-15T23:59:28.638Z,38.37
